sensor_id;sensor_type;location;lat;lon;timestamp;pressure;altitude;pressure_sealevel;temperature
27986;BMP280;15453;53.692;10.168;2023-05-10T00:00:55;100552.28;;;20.11
27986;BMP280;15453;53.692;10.168;2023-05-10T00:03:20;100551.84;;;20.04
27986;BMP280;15453;53.692;10.168;2023-05-10T00:05:45;100551.84;;;20.04
27986;BMP280;15453;53.692;10.168;2023-05-10T00:08:10;100552.63;;;19.96
27986;BMP280;15453;53.692;10.168;2023-05-10T00:10:36;100552.13;;;19.94
27986;BMP280;15453;53.692;10.168;2023-05-10T00:13:02;100552.13;;;19.94
27986;BMP280;15453;53.692;10.168;2023-05-10T00:15:27;100543.06;;;19.88
27986;BMP280;15453;53.692;10.168;2023-05-10T00:17:53;100547.63;;;19.84
27986;BMP280;15453;53.692;10.168;2023-05-10T00:20:18;100529.94;;;19.80
27986;BMP280;15453;53.692;10.168;2023-05-10T00:22:43;100535.00;;;19.78
27986;BMP280;15453;53.692;10.168;2023-05-10T00:25:09;100530.91;;;19.76
27986;BMP280;15453;53.692;10.168;2023-05-10T00:27:35;100532.66;;;19.72
27986;BMP280;15453;53.692;10.168;2023-05-10T00:30:00;100532.66;;;19.72
27986;BMP280;15453;53.692;10.168;2023-05-10T00:32:25;100521.66;;;19.67
27986;BMP280;15453;53.692;10.168;2023-05-10T00:34:51;100522.78;;;19.66
27986;BMP280;15453;53.692;10.168;2023-05-10T00:37:16;100522.78;;;19.66
27986;BMP280;15453;53.692;10.168;2023-05-10T00:39:41;100520.97;;;19.61
27986;BMP280;15453;53.692;10.168;2023-05-10T00:42:06;100509.34;;;19.59
27986;BMP280;15453;53.692;10.168;2023-05-10T00:44:32;100509.34;;;19.59
27986;BMP280;15453;53.692;10.168;2023-05-10T00:46:58;100520.56;;;19.54
27986;BMP280;15453;53.692;10.168;2023-05-10T00:49:24;100512.84;;;19.51
27986;BMP280;15453;53.692;10.168;2023-05-10T00:51:50;100514.31;;;19.49
27986;BMP280;15453;53.692;10.168;2023-05-10T00:54:15;100514.31;;;19.49
27986;BMP280;15453;53.692;10.168;2023-05-10T00:56:41;100504.34;;;19.48
27986;BMP280;15453;53.692;10.168;2023-05-10T00:59:08;100502.19;;;19.45
27986;BMP280;15453;53.692;10.168;2023-05-10T01:01:34;100506.63;;;19.46
27986;BMP280;15453;53.692;10.168;2023-05-10T01:04:00;100505.25;;;19.43
27986;BMP280;15453;53.692;10.168;2023-05-10T01:06:25;100505.91;;;19.40
27986;BMP280;15453;53.692;10.168;2023-05-10T01:08:51;100505.91;;;19.40
27986;BMP280;15453;53.692;10.168;2023-05-10T01:11:16;100503.56;;;19.34
27986;BMP280;15453;53.692;10.168;2023-05-10T01:13:42;100503.56;;;19.34
27986;BMP280;15453;53.692;10.168;2023-05-10T01:16:08;100496.47;;;19.28
27986;BMP280;15453;53.692;10.168;2023-05-10T01:18:39;100489.59;;;19.25
27986;BMP280;15453;53.692;10.168;2023-05-10T01:24:48;100484.13;;;19.20
27986;BMP280;15453;53.692;10.168;2023-05-10T01:27:03;100490.59;;;19.16
27986;BMP280;15453;53.692;10.168;2023-05-10T01:32:14;100495.84;;;19.17
27986;BMP280;15453;53.692;10.168;2023-05-10T01:35:07;100496.28;;;19.11
27986;BMP280;15453;53.692;10.168;2023-05-10T01:37:52;100496.28;;;19.11
27986;BMP280;15453;53.692;10.168;2023-05-10T01:40:29;100498.63;;;19.04
27986;BMP280;15453;53.692;10.168;2023-05-10T01:43:04;100497.31;;;19.01
27986;BMP280;15453;53.692;10.168;2023-05-10T01:45:58;100497.31;;;19.01
27986;BMP280;15453;53.692;10.168;2023-05-10T01:48:27;100494.16;;;18.94
27986;BMP280;15453;53.692;10.168;2023-05-10T01:50:53;100494.16;;;18.94
27986;BMP280;15453;53.692;10.168;2023-05-10T01:53:19;100495.38;;;18.88
27986;BMP280;15453;53.692;10.168;2023-05-10T01:55:48;100491.56;;;18.84
27986;BMP280;15453;53.692;10.168;2023-05-10T01:58:19;100490.56;;;18.80
27986;BMP280;15453;53.692;10.168;2023-05-10T02:00:46;100492.84;;;18.78
27986;BMP280;15453;53.692;10.168;2023-05-10T02:03:13;100502.59;;;18.76
27986;BMP280;15453;53.692;10.168;2023-05-10T02:05:41;100495.38;;;18.75
27986;BMP280;15453;53.692;10.168;2023-05-10T02:08:08;100496.03;;;18.72
27986;BMP280;15453;53.692;10.168;2023-05-10T02:10:35;100496.03;;;18.72
27986;BMP280;15453;53.692;10.168;2023-05-10T02:13:01;100495.50;;;18.70
27986;BMP280;15453;53.692;10.168;2023-05-10T02:15:27;100482.25;;;18.67
27986;BMP280;15453;53.692;10.168;2023-05-10T02:17:55;100490.34;;;18.63
27986;BMP280;15453;53.692;10.168;2023-05-10T02:20:22;100490.34;;;18.63
27986;BMP280;15453;53.692;10.168;2023-05-10T02:22:50;100480.50;;;18.57
27986;BMP280;15453;53.692;10.168;2023-05-10T02:25:18;100486.66;;;18.54
27986;BMP280;15453;53.692;10.168;2023-05-10T02:27:44;100486.66;;;18.54
27986;BMP280;15453;53.692;10.168;2023-05-10T02:30:10;100483.47;;;18.47
27986;BMP280;15453;53.692;10.168;2023-05-10T02:32:36;100491.59;;;18.44
27986;BMP280;15453;53.692;10.168;2023-05-10T02:35:03;100478.63;;;18.39
27986;BMP280;15453;53.692;10.168;2023-05-10T02:37:29;100487.78;;;18.40
27986;BMP280;15453;53.692;10.168;2023-05-10T02:39:55;100487.78;;;18.40
27986;BMP280;15453;53.692;10.168;2023-05-10T02:42:26;100473.47;;;18.33
27986;BMP280;15453;53.692;10.168;2023-05-10T02:44:58;100473.47;;;18.33
27986;BMP280;15453;53.692;10.168;2023-05-10T02:47:24;100474.69;;;18.27
27986;BMP280;15453;53.692;10.168;2023-05-10T02:49:49;100476.13;;;18.24
27986;BMP280;15453;53.692;10.168;2023-05-10T02:52:21;100483.41;;;18.20
27986;BMP280;15453;53.692;10.168;2023-05-10T02:54:49;100479.00;;;18.19
27986;BMP280;15453;53.692;10.168;2023-05-10T02:57:17;100468.53;;;18.16
27986;BMP280;15453;53.692;10.168;2023-05-10T02:59:46;100468.00;;;18.14
27986;BMP280;15453;53.692;10.168;2023-05-10T03:02:14;100468.63;;;18.11
27986;BMP280;15453;53.692;10.168;2023-05-10T03:04:40;100468.63;;;18.11
27986;BMP280;15453;53.692;10.168;2023-05-10T03:07:05;100463.50;;;18.05
27986;BMP280;15453;53.692;10.168;2023-05-10T03:09:31;100462.94;;;18.03
27986;BMP280;15453;53.692;10.168;2023-05-10T03:12:31;100468.00;;;18.01
27986;BMP280;15453;53.692;10.168;2023-05-10T03:15:11;100464.47;;;17.95
27986;BMP280;15453;53.692;10.168;2023-05-10T03:18:09;100468.06;;;17.96
27986;BMP280;15453;53.692;10.168;2023-05-10T03:20:39;100468.69;;;17.93
27986;BMP280;15453;53.692;10.168;2023-05-10T03:25:46;100475.97;;;17.89
27986;BMP280;15453;53.692;10.168;2023-05-10T03:28:14;100468.25;;;17.86
27986;BMP280;15453;53.692;10.168;2023-05-10T03:30:41;100474.09;;;17.84
27986;BMP280;15453;53.692;10.168;2023-05-10T03:33:06;100473.28;;;17.84
27986;BMP280;15453;53.692;10.168;2023-05-10T03:35:32;100473.28;;;17.84
27986;BMP280;15453;53.692;10.168;2023-05-10T03:37:57;100468.03;;;17.82
27986;BMP280;15453;53.692;10.168;2023-05-10T03:40:23;100468.03;;;17.82
27986;BMP280;15453;53.692;10.168;2023-05-10T03:42:49;100465.88;;;17.79
27986;BMP280;15453;53.692;10.168;2023-05-10T03:45:14;100464.53;;;17.77
27986;BMP280;15453;53.692;10.168;2023-05-10T03:47:40;100467.59;;;17.75
27986;BMP280;15453;53.692;10.168;2023-05-10T03:50:06;100468.19;;;17.72
27986;BMP280;15453;53.692;10.168;2023-05-10T03:52:31;100466.56;;;17.71
27986;BMP280;15453;53.692;10.168;2023-05-10T03:54:56;100466.56;;;17.71
27986;BMP280;15453;53.692;10.168;2023-05-10T03:57:22;100472.69;;;17.68
27986;BMP280;15453;53.692;10.168;2023-05-10T03:59:47;100460.81;;;17.68
27986;BMP280;15453;53.692;10.168;2023-05-10T04:02:12;100460.81;;;17.68
27986;BMP280;15453;53.692;10.168;2023-05-10T04:04:37;100464.72;;;17.67
27986;BMP280;15453;53.692;10.168;2023-05-10T04:07:03;100465.53;;;17.67
27986;BMP280;15453;53.692;10.168;2023-05-10T04:09:28;100459.78;;;17.64
27986;BMP280;15453;53.692;10.168;2023-05-10T04:11:53;100459.25;;;17.62
27986;BMP280;15453;53.692;10.168;2023-05-10T04:14:18;100459.25;;;17.62
27986;BMP280;15453;53.692;10.168;2023-05-10T04:16:44;100463.97;;;17.61
27986;BMP280;15453;53.692;10.168;2023-05-10T04:19:09;100463.97;;;17.61
27986;BMP280;15453;53.692;10.168;2023-05-10T04:21:36;100464.56;;;17.58
27986;BMP280;15453;53.692;10.168;2023-05-10T04:24:01;100473.09;;;17.62
27986;BMP280;15453;53.692;10.168;2023-05-10T04:26:26;100473.09;;;17.62
27986;BMP280;15453;53.692;10.168;2023-05-10T04:28:51;100474.44;;;17.64
27986;BMP280;15453;53.692;10.168;2023-05-10T04:31:17;100476.59;;;17.67
27986;BMP280;15453;53.692;10.168;2023-05-10T04:33:42;100471.06;;;17.67
27986;BMP280;15453;53.692;10.168;2023-05-10T04:36:07;100471.06;;;17.67
27986;BMP280;15453;53.692;10.168;2023-05-10T04:38:33;100474.03;;;17.71
27986;BMP280;15453;53.692;10.168;2023-05-10T04:41:08;100472.41;;;17.70
27986;BMP280;15453;53.692;10.168;2023-05-10T04:43:36;100472.41;;;17.70
27986;BMP280;15453;53.692;10.168;2023-05-10T04:46:01;100473.25;;;17.70
27986;BMP280;15453;53.692;10.168;2023-05-10T04:48:27;100468.00;;;17.69
27986;BMP280;15453;53.692;10.168;2023-05-10T04:50:52;100466.34;;;17.68
27986;BMP280;15453;53.692;10.168;2023-05-10T04:53:17;100467.50;;;17.67
27986;BMP280;15453;53.692;10.168;2023-05-10T04:55:42;100467.50;;;17.67
27986;BMP280;15453;53.692;10.168;2023-05-10T04:58:08;100477.72;;;17.66
27986;BMP280;15453;53.692;10.168;2023-05-10T05:00:34;100477.72;;;17.66
27986;BMP280;15453;53.692;10.168;2023-05-10T05:02:59;100468.28;;;17.67
27986;BMP280;15453;53.692;10.168;2023-05-10T05:05:24;100472.69;;;17.68
27986;BMP280;15453;53.692;10.168;2023-05-10T05:07:50;100471.59;;;17.69
27986;BMP280;15453;53.692;10.168;2023-05-10T05:10:15;100471.59;;;17.69
27986;BMP280;15453;53.692;10.168;2023-05-10T05:12:40;100475.47;;;17.68
27986;BMP280;15453;53.692;10.168;2023-05-10T05:15:06;100471.28;;;17.71
27986;BMP280;15453;53.692;10.168;2023-05-10T05:17:33;100468.19;;;17.72
27986;BMP280;15453;53.692;10.168;2023-05-10T05:19:58;100468.19;;;17.72
27986;BMP280;15453;53.692;10.168;2023-05-10T05:22:23;100465.88;;;17.79
27986;BMP280;15453;53.692;10.168;2023-05-10T05:24:55;100465.88;;;17.79
27986;BMP280;15453;53.692;10.168;2023-05-10T05:27:21;100465.56;;;17.81
27986;BMP280;15453;53.692;10.168;2023-05-10T05:29:49;100469.28;;;17.90
27986;BMP280;15453;53.692;10.168;2023-05-10T05:32:15;100467.25;;;17.95
27986;BMP280;15453;53.692;10.168;2023-05-10T05:34:40;100470.22;;;17.99
27986;BMP280;15453;53.692;10.168;2023-05-10T05:37:05;100470.22;;;17.99
27986;BMP280;15453;53.692;10.168;2023-05-10T05:39:31;100472.59;;;18.05
27986;BMP280;15453;53.692;10.168;2023-05-10T05:41:56;100486.69;;;18.09
27986;BMP280;15453;53.692;10.168;2023-05-10T05:44:21;100484.97;;;18.13
27986;BMP280;15453;53.692;10.168;2023-05-10T05:46:46;100479.09;;;18.14
27986;BMP280;15453;53.692;10.168;2023-05-10T05:49:12;100482.38;;;18.16
27986;BMP280;15453;53.692;10.168;2023-05-10T05:51:37;100481.25;;;18.17
27986;BMP280;15453;53.692;10.168;2023-05-10T05:54:02;100478.19;;;18.19
27986;BMP280;15453;53.692;10.168;2023-05-10T05:56:29;100485.34;;;18.20
27986;BMP280;15453;53.692;10.168;2023-05-10T05:58:54;100485.34;;;18.20
27986;BMP280;15453;53.692;10.168;2023-05-10T06:01:20;100484.97;;;18.26
27986;BMP280;15453;53.692;10.168;2023-05-10T06:03:45;100483.22;;;18.30
27986;BMP280;15453;53.692;10.168;2023-05-10T06:06:10;100486.25;;;18.34
27986;BMP280;15453;53.692;10.168;2023-05-10T06:08:36;100486.25;;;18.34
27986;BMP280;15453;53.692;10.168;2023-05-10T06:11:01;100471.97;;;18.40
27986;BMP280;15453;53.692;10.168;2023-05-10T06:13:26;100471.97;;;18.40
27986;BMP280;15453;53.692;10.168;2023-05-10T06:15:58;100482.97;;;18.45
27986;BMP280;15453;53.692;10.168;2023-05-10T06:18:23;100487.38;;;18.46
27986;BMP280;15453;53.692;10.168;2023-05-10T06:20:49;100487.38;;;18.46
27986;BMP280;15453;53.692;10.168;2023-05-10T06:23:15;100486.78;;;18.49
27986;BMP280;15453;53.692;10.168;2023-05-10T06:25:40;100484.78;;;18.50
27986;BMP280;15453;53.692;10.168;2023-05-10T06:28:05;100489.25;;;18.51
27986;BMP280;15453;53.692;10.168;2023-05-10T06:30:31;100481.41;;;18.53
27986;BMP280;15453;53.692;10.168;2023-05-10T06:32:56;100481.41;;;18.53
27986;BMP280;15453;53.692;10.168;2023-05-10T06:35:22;100482.56;;;18.52
27986;BMP280;15453;53.692;10.168;2023-05-10T06:37:47;100482.97;;;18.59
27986;BMP280;15453;53.692;10.168;2023-05-10T06:40:12;100482.97;;;18.59
27986;BMP280;15453;53.692;10.168;2023-05-10T06:42:38;100486.44;;;18.64
27986;BMP280;15453;53.692;10.168;2023-05-10T06:45:03;100486.44;;;18.64
27986;BMP280;15453;53.692;10.168;2023-05-10T06:47:29;100487.81;;;18.67
27986;BMP280;15453;53.692;10.168;2023-05-10T06:49:54;100500.00;;;18.79
27986;BMP280;15453;53.692;10.168;2023-05-10T06:52:20;100500.00;;;18.79
27986;BMP280;15453;53.692;10.168;2023-05-10T06:54:45;100491.38;;;18.81
27986;BMP280;15453;53.692;10.168;2023-05-10T06:57:11;100499.72;;;18.94
27986;BMP280;15453;53.692;10.168;2023-05-10T06:59:36;100496.50;;;19.01
27986;BMP280;15453;53.692;10.168;2023-05-10T07:02:01;100494.94;;;19.08
27986;BMP280;15453;53.692;10.168;2023-05-10T07:04:27;100494.53;;;19.15
27986;BMP280;15453;53.692;10.168;2023-05-10T07:06:52;100492.69;;;19.24
27986;BMP280;15453;53.692;10.168;2023-05-10T07:09:18;100495.03;;;19.30
27986;BMP280;15453;53.692;10.168;2023-05-10T07:11:43;100491.81;;;19.37
27986;BMP280;15453;53.692;10.168;2023-05-10T07:14:08;100491.81;;;19.37
27986;BMP280;15453;53.692;10.168;2023-05-10T07:16:34;100491.72;;;19.42
27986;BMP280;15453;53.692;10.168;2023-05-10T07:18:59;100496.28;;;19.60
27986;BMP280;15453;53.692;10.168;2023-05-10T07:21:24;100496.66;;;19.67
27986;BMP280;15453;53.692;10.168;2023-05-10T07:23:49;100491.78;;;19.72
27986;BMP280;15453;53.692;10.168;2023-05-10T07:26:15;100494.47;;;19.77
27986;BMP280;15453;53.692;10.168;2023-05-10T07:28:41;100494.31;;;19.82
27986;BMP280;15453;53.692;10.168;2023-05-10T07:31:06;100500.69;;;19.83
27986;BMP280;15453;53.692;10.168;2023-05-10T07:33:31;100505.31;;;19.87
27986;BMP280;15453;53.692;10.168;2023-05-10T07:35:57;100505.31;;;19.87
27986;BMP280;15453;53.692;10.168;2023-05-10T07:38:22;100502.09;;;19.94
27986;BMP280;15453;53.692;10.168;2023-05-10T07:40:48;100502.09;;;19.94
27986;BMP280;15453;53.692;10.168;2023-05-10T07:43:13;100507.19;;;20.00
27986;BMP280;15453;53.692;10.168;2023-05-10T07:45:38;100506.03;;;20.01
27986;BMP280;15453;53.692;10.168;2023-05-10T07:48:04;100502.97;;;20.03
27986;BMP280;15453;53.692;10.168;2023-05-10T07:50:29;100512.13;;;20.03
27986;BMP280;15453;53.692;10.168;2023-05-10T07:52:55;100503.47;;;20.05
27986;BMP280;15453;53.692;10.168;2023-05-10T07:55:20;100507.06;;;20.05
27986;BMP280;15453;53.692;10.168;2023-05-10T07:57:48;100505.09;;;20.06
27986;BMP280;15453;53.692;10.168;2023-05-10T08:00:17;100505.09;;;20.06
27986;BMP280;15453;53.692;10.168;2023-05-10T08:02:43;100518.09;;;20.10
27986;BMP280;15453;53.692;10.168;2023-05-10T08:05:08;100514.66;;;20.13
27986;BMP280;15453;53.692;10.168;2023-05-10T08:07:33;100514.66;;;20.13
27986;BMP280;15453;53.692;10.168;2023-05-10T08:09:59;100512.41;;;20.15
27986;BMP280;15453;53.692;10.168;2023-05-10T08:12:24;100503.94;;;20.29
27986;BMP280;15453;53.692;10.168;2023-05-10T08:14:50;100509.88;;;20.36
27986;BMP280;15453;53.692;10.168;2023-05-10T08:17:15;100517.28;;;20.40
27986;BMP280;15453;53.692;10.168;2023-05-10T08:19:40;100518.28;;;20.44
27986;BMP280;15453;53.692;10.168;2023-05-10T08:22:05;100516.84;;;20.47
27986;BMP280;15453;53.692;10.168;2023-05-10T08:24:31;100519.28;;;20.48
27986;BMP280;15453;53.692;10.168;2023-05-10T08:26:56;100523.88;;;20.53
27986;BMP280;15453;53.692;10.168;2023-05-10T08:29:22;100523.88;;;20.53
27986;BMP280;15453;53.692;10.168;2023-05-10T08:31:47;100525.41;;;20.59
27986;BMP280;15453;53.692;10.168;2023-05-10T08:34:12;100533.59;;;20.64
27986;BMP280;15453;53.692;10.168;2023-05-10T08:36:37;100525.09;;;20.69
27986;BMP280;15453;53.692;10.168;2023-05-10T08:39:03;100525.09;;;20.69
27986;BMP280;15453;53.692;10.168;2023-05-10T08:41:29;100519.22;;;20.70
27986;BMP280;15453;53.692;10.168;2023-05-10T08:43:55;100524.94;;;20.74
27986;BMP280;15453;53.692;10.168;2023-05-10T08:46:22;100531.06;;;20.84
27986;BMP280;15453;53.692;10.168;2023-05-10T08:48:49;100531.06;;;20.84
27986;BMP280;15453;53.692;10.168;2023-05-10T08:51:18;100521.06;;;20.83
27986;BMP280;15453;53.692;10.168;2023-05-10T08:53:44;100528.78;;;20.86
27986;BMP280;15453;53.692;10.168;2023-05-10T08:56:10;100528.03;;;20.94
27986;BMP280;15453;53.692;10.168;2023-05-10T08:58:36;100528.03;;;20.94
27986;BMP280;15453;53.692;10.168;2023-05-10T09:01:02;100528.34;;;20.93
27986;BMP280;15453;53.692;10.168;2023-05-10T09:03:27;100538.53;;;21.06
27986;BMP280;15453;53.692;10.168;2023-05-10T09:05:53;100538.53;;;21.06
27986;BMP280;15453;53.692;10.168;2023-05-10T09:08:20;100540.16;;;21.07
27986;BMP280;15453;53.692;10.168;2023-05-10T09:10:46;100542.78;;;21.12
27986;BMP280;15453;53.692;10.168;2023-05-10T09:13:14;100549.56;;;21.28
27986;BMP280;15453;53.692;10.168;2023-05-10T09:15:40;100545.47;;;21.34
27986;BMP280;15453;53.692;10.168;2023-05-10T09:18:06;100552.06;;;21.38
27986;BMP280;15453;53.692;10.168;2023-05-10T09:20:31;100552.06;;;21.38
27986;BMP280;15453;53.692;10.168;2023-05-10T09:22:57;100557.81;;;21.50
27986;BMP280;15453;53.692;10.168;2023-05-10T09:25:22;100553.69;;;21.56
27986;BMP280;15453;53.692;10.168;2023-05-10T09:27:47;100557.47;;;21.60
27986;BMP280;15453;53.692;10.168;2023-05-10T09:30:24;100557.47;;;21.60
27986;BMP280;15453;53.692;10.168;2023-05-10T09:32:50;100555.03;;;21.67
27986;BMP280;15453;53.692;10.168;2023-05-10T09:35:18;100555.03;;;21.67
27986;BMP280;15453;53.692;10.168;2023-05-10T09:37:47;100553.38;;;21.66
27986;BMP280;15453;53.692;10.168;2023-05-10T09:40:26;100566.84;;;21.72
27986;BMP280;15453;53.692;10.168;2023-05-10T09:45:26;100562.09;;;21.73
27986;BMP280;15453;53.692;10.168;2023-05-10T09:50:17;100578.03;;;21.81
27986;BMP280;15453;53.692;10.168;2023-05-10T09:52:57;100578.03;;;21.81
27986;BMP280;15453;53.692;10.168;2023-05-10T09:55:44;100578.50;;;21.83
27986;BMP280;15453;53.692;10.168;2023-05-10T09:58:11;100578.50;;;21.83
27986;BMP280;15453;53.692;10.168;2023-05-10T10:00:39;100580.97;;;21.84
27986;BMP280;15453;53.692;10.168;2023-05-10T10:03:05;100574.25;;;21.85
27986;BMP280;15453;53.692;10.168;2023-05-10T10:05:35;100584.25;;;21.86
27986;BMP280;15453;53.692;10.168;2023-05-10T10:08:03;100584.41;;;21.90
27986;BMP280;15453;53.692;10.168;2023-05-10T10:10:28;100590.00;;;21.90
27986;BMP280;15453;53.692;10.168;2023-05-10T10:12:54;100598.03;;;21.91
27986;BMP280;15453;53.692;10.168;2023-05-10T10:15:21;100601.28;;;21.93
27986;BMP280;15453;53.692;10.168;2023-05-10T10:17:48;100590.97;;;21.94
27986;BMP280;15453;53.692;10.168;2023-05-10T10:20:14;100590.97;;;21.94
27986;BMP280;15453;53.692;10.168;2023-05-10T10:22:40;100598.34;;;21.90
27986;BMP280;15453;53.692;10.168;2023-05-10T10:25:05;100598.34;;;21.90
27986;BMP280;15453;53.692;10.168;2023-05-10T10:27:45;100617.22;;;21.76
27986;BMP280;15453;53.692;10.168;2023-05-10T10:30:35;100617.22;;;21.76
27986;BMP280;15453;53.692;10.168;2023-05-10T10:36:05;100608.94;;;21.54
27986;BMP280;15453;53.692;10.168;2023-05-10T10:41:27;100620.19;;;21.32
27986;BMP280;15453;53.692;10.168;2023-05-10T10:49:51;100616.72;;;21.18
27986;BMP280;15453;53.692;10.168;2023-05-10T10:55:10;100629.78;;;21.09
27986;BMP280;15453;53.692;10.168;2023-05-10T10:57:55;100637.16;;;21.05
27986;BMP280;15453;53.692;10.168;2023-05-10T11:00:32;100637.16;;;21.05
27986;BMP280;15453;53.692;10.168;2023-05-10T11:05:43;100654.31;;;20.98
27986;BMP280;15453;53.692;10.168;2023-05-10T11:08:11;100651.00;;;20.96
27986;BMP280;15453;53.692;10.168;2023-05-10T11:10:37;100663.63;;;20.94
27986;BMP280;15453;53.692;10.168;2023-05-10T11:13:04;100665.91;;;20.92
27986;BMP280;15453;53.692;10.168;2023-05-10T11:15:35;100665.91;;;20.92
27986;BMP280;15453;53.692;10.168;2023-05-10T11:18:36;100677.25;;;20.82
27986;BMP280;15453;53.692;10.168;2023-05-10T11:21:02;100680.06;;;20.82
27986;BMP280;15453;53.692;10.168;2023-05-10T11:23:47;100680.50;;;20.75
27986;BMP280;15453;53.692;10.168;2023-05-10T11:26:13;100684.91;;;20.76
27986;BMP280;15453;53.692;10.168;2023-05-10T11:28:46;100685.91;;;20.72
27986;BMP280;15453;53.692;10.168;2023-05-10T11:31:16;100685.91;;;20.72
27986;BMP280;15453;53.692;10.168;2023-05-10T11:33:43;100679.31;;;20.68
27986;BMP280;15453;53.692;10.168;2023-05-10T11:36:17;100679.31;;;20.68
27986;BMP280;15453;53.692;10.168;2023-05-10T11:38:43;100677.16;;;20.65
27986;BMP280;15453;53.692;10.168;2023-05-10T11:41:09;100677.16;;;20.65
27986;BMP280;15453;53.692;10.168;2023-05-10T11:43:36;100678.31;;;20.64
27986;BMP280;15453;53.692;10.168;2023-05-10T11:46:04;100688.16;;;20.70
27986;BMP280;15453;53.692;10.168;2023-05-10T11:48:30;100688.16;;;20.70
27986;BMP280;15453;53.692;10.168;2023-05-10T11:50:56;100691.25;;;20.68
27986;BMP280;15453;53.692;10.168;2023-05-10T11:53:23;100688.69;;;20.72
27986;BMP280;15453;53.692;10.168;2023-05-10T11:55:48;100694.59;;;20.79
27986;BMP280;15453;53.692;10.168;2023-05-10T11:58:13;100694.28;;;20.80
27986;BMP280;15453;53.692;10.168;2023-05-10T12:00:38;100694.28;;;20.80
27986;BMP280;15453;53.692;10.168;2023-05-10T12:03:05;100690.69;;;20.80
27986;BMP280;15453;53.692;10.168;2023-05-10T12:05:32;100701.88;;;20.88
27986;BMP280;15453;53.692;10.168;2023-05-10T12:08:12;100708.28;;;20.89
27986;BMP280;15453;53.692;10.168;2023-05-10T12:10:37;100705.69;;;20.92
27986;BMP280;15453;53.692;10.168;2023-05-10T12:13:02;100711.13;;;20.97
27986;BMP280;15453;53.692;10.168;2023-05-10T12:15:28;100710.50;;;21.00
27986;BMP280;15453;53.692;10.168;2023-05-10T12:17:53;100716.06;;;21.00
27986;BMP280;15453;53.692;10.168;2023-05-10T12:20:23;100716.06;;;21.00
27986;BMP280;15453;53.692;10.168;2023-05-10T12:22:53;100706.06;;;20.99
27986;BMP280;15453;53.692;10.168;2023-05-10T12:25:20;100717.38;;;21.03
27986;BMP280;15453;53.692;10.168;2023-05-10T12:27:53;100717.38;;;21.03
27986;BMP280;15453;53.692;10.168;2023-05-10T12:30:27;100722.63;;;21.04
27986;BMP280;15453;53.692;10.168;2023-05-10T12:32:53;100721.00;;;21.03
27986;BMP280;15453;53.692;10.168;2023-05-10T12:35:19;100724.94;;;21.02
27986;BMP280;15453;53.692;10.168;2023-05-10T12:37:50;100724.94;;;21.02
27986;BMP280;15453;53.692;10.168;2023-05-10T12:40:15;100733.78;;;21.04
27986;BMP280;15453;53.692;10.168;2023-05-10T12:42:40;100736.88;;;21.03
27986;BMP280;15453;53.692;10.168;2023-05-10T12:45:07;100736.88;;;21.03
27986;BMP280;15453;53.692;10.168;2023-05-10T12:47:33;100741.13;;;21.00
27986;BMP280;15453;53.692;10.168;2023-05-10T12:49:59;100741.13;;;21.00
27986;BMP280;15453;53.692;10.168;2023-05-10T12:52:25;100746.19;;;20.98
27986;BMP280;15453;53.692;10.168;2023-05-10T12:54:51;100746.19;;;20.98
27986;BMP280;15453;53.692;10.168;2023-05-10T12:57:17;100746.50;;;20.97
27986;BMP280;15453;53.692;10.168;2023-05-10T12:59:42;100750.94;;;20.98
27986;BMP280;15453;53.692;10.168;2023-05-10T13:02:08;100750.94;;;20.98
27986;BMP280;15453;53.692;10.168;2023-05-10T13:04:33;100755.34;;;20.99
27986;BMP280;15453;53.692;10.168;2023-05-10T13:06:59;100757.03;;;21.00
27986;BMP280;15453;53.692;10.168;2023-05-10T13:09:25;100757.03;;;21.00
27986;BMP280;15453;53.692;10.168;2023-05-10T13:11:51;100754.25;;;21.00
27986;BMP280;15453;53.692;10.168;2023-05-10T13:14:18;100754.25;;;21.00
27986;BMP280;15453;53.692;10.168;2023-05-10T13:16:45;100753.41;;;20.99
27986;BMP280;15453;53.692;10.168;2023-05-10T13:19:10;100760.13;;;20.98
27986;BMP280;15453;53.692;10.168;2023-05-10T13:21:36;100757.81;;;21.00
27986;BMP280;15453;53.692;10.168;2023-05-10T13:24:01;100761.44;;;21.01
27986;BMP280;15453;53.692;10.168;2023-05-10T13:26:27;100760.78;;;21.04
27986;BMP280;15453;53.692;10.168;2023-05-10T13:28:53;100757.69;;;21.05
27986;BMP280;15453;53.692;10.168;2023-05-10T13:31:20;100757.69;;;21.05
27986;BMP280;15453;53.692;10.168;2023-05-10T13:33:45;100757.25;;;21.12
27986;BMP280;15453;53.692;10.168;2023-05-10T13:36:12;100749.41;;;21.14
27986;BMP280;15453;53.692;10.168;2023-05-10T13:38:37;100757.94;;;21.17
27986;BMP280;15453;53.692;10.168;2023-05-10T13:41:02;100753.69;;;21.20
27986;BMP280;15453;53.692;10.168;2023-05-10T13:43:29;100751.09;;;21.23
27986;BMP280;15453;53.692;10.168;2023-05-10T13:45:54;100757.69;;;21.27
27986;BMP280;15453;53.692;10.168;2023-05-10T13:48:19;100756.22;;;21.30
27986;BMP280;15453;53.692;10.168;2023-05-10T13:50:45;100757.53;;;21.32
27986;BMP280;15453;53.692;10.168;2023-05-10T13:53:11;100750.19;;;21.36
27986;BMP280;15453;53.692;10.168;2023-05-10T13:55:36;100751.50;;;21.39
27986;BMP280;15453;53.692;10.168;2023-05-10T13:58:01;100747.72;;;21.43
27986;BMP280;15453;53.692;10.168;2023-05-10T14:00:26;100752.19;;;21.44
27986;BMP280;15453;53.692;10.168;2023-05-10T14:02:52;100752.19;;;21.44
27986;BMP280;15453;53.692;10.168;2023-05-10T14:05:17;100755.16;;;21.48
27986;BMP280;15453;53.692;10.168;2023-05-10T14:07:42;100754.81;;;21.49
27986;BMP280;15453;53.692;10.168;2023-05-10T14:10:08;100753.34;;;21.52
27986;BMP280;15453;53.692;10.168;2023-05-10T14:12:33;100744.38;;;21.55
27986;BMP280;15453;53.692;10.168;2023-05-10T14:14:58;100747.31;;;21.58